sensor_id;sensor_type;location;lat;lon;timestamp;P1;durP1;ratioP1;P2;durP2;ratioP2
37777;SDS011;23615;51.506;7.678;2024-01-25T00:00:26;22.88;;;4.30;;
37777;SDS011;23615;51.506;7.678;2024-01-25T00:02:52;24.70;;;4.70;;
37777;SDS011;23615;51.506;7.678;2024-01-25T00:05:17;27.17;;;5.80;;
37777;SDS011;23615;51.506;7.678;2024-01-25T00:07:46;27.03;;;5.53;;
37777;SDS011;23615;51.506;7.678;2024-01-25T00:10:12;20.10;;;4.90;;
37777;SDS011;23615;51.506;7.678;2024-01-25T00:12:37;25.53;;;5.27;;
37777;SDS011;23615;51.506;7.678;2024-01-25T00:15:03;21.17;;;5.30;;
37777;SDS011;23615;51.506;7.678;2024-01-25T00:17:28;26.50;;;6.00;;
37777;SDS011;23615;51.506;7.678;2024-01-25T00:19:54;19.37;;;5.40;;
37777;SDS011;23615;51.506;7.678;2024-01-25T00:22:19;22.93;;;5.23;;
37777;SDS011;23615;51.506;7.678;2024-01-25T00:24:44;27.20;;;6.83;;
37777;SDS011;23615;51.506;7.678;2024-01-25T00:27:10;23.63;;;5.45;;
37777;SDS011;23615;51.506;7.678;2024-01-25T00:29:35;23.67;;;5.75;;
37777;SDS011;23615;51.506;7.678;2024-01-25T00:32:01;26.23;;;5.03;;
37777;SDS011;23615;51.506;7.678;2024-01-25T00:34:27;28.48;;;4.68;;
37777;SDS011;23615;51.506;7.678;2024-01-25T00:36:53;23.80;;;5.17;;
37777;SDS011;23615;51.506;7.678;2024-01-25T00:39:19;20.33;;;5.55;;
37777;SDS011;23615;51.506;7.678;2024-01-25T00:41:44;23.13;;;5.13;;
37777;SDS011;23615;51.506;7.678;2024-01-25T00:44:14;27.50;;;6.15;;
37777;SDS011;23615;51.506;7.678;2024-01-25T00:46:40;24.10;;;5.67;;
37777;SDS011;23615;51.506;7.678;2024-01-25T00:49:06;23.63;;;5.17;;
37777;SDS011;23615;51.506;7.678;2024-01-25T00:51:31;19.75;;;4.82;;
37777;SDS011;23615;51.506;7.678;2024-01-25T00:53:57;22.50;;;4.78;;
37777;SDS011;23615;51.506;7.678;2024-01-25T00:56:22;27.33;;;5.63;;
37777;SDS011;23615;51.506;7.678;2024-01-25T00:58:48;32.53;;;5.77;;
37777;SDS011;23615;51.506;7.678;2024-01-25T01:01:14;23.30;;;4.53;;
37777;SDS011;23615;51.506;7.678;2024-01-25T01:03:39;16.63;;;4.33;;
37777;SDS011;23615;51.506;7.678;2024-01-25T01:06:05;23.92;;;5.28;;
37777;SDS011;23615;51.506;7.678;2024-01-25T01:08:31;23.23;;;5.60;;
37777;SDS011;23615;51.506;7.678;2024-01-25T01:10:57;26.60;;;5.13;;
37777;SDS011;23615;51.506;7.678;2024-01-25T01:13:22;24.43;;;5.30;;
37777;SDS011;23615;51.506;7.678;2024-01-25T01:15:47;26.53;;;5.93;;
37777;SDS011;23615;51.506;7.678;2024-01-25T01:18:13;23.67;;;4.60;;
37777;SDS011;23615;51.506;7.678;2024-01-25T01:20:38;22.70;;;4.87;;
37777;SDS011;23615;51.506;7.678;2024-01-25T01:23:03;25.47;;;4.80;;
37777;SDS011;23615;51.506;7.678;2024-01-25T01:25:29;20.40;;;5.40;;
37777;SDS011;23615;51.506;7.678;2024-01-25T01:27:54;20.73;;;5.57;;
37777;SDS011;23615;51.506;7.678;2024-01-25T01:30:19;24.38;;;4.88;;
37777;SDS011;23615;51.506;7.678;2024-01-25T01:32:45;23.98;;;4.50;;
37777;SDS011;23615;51.506;7.678;2024-01-25T01:35:10;25.90;;;5.53;;
37777;SDS011;23615;51.506;7.678;2024-01-25T01:37:36;22.17;;;4.47;;
37777;SDS011;23615;51.506;7.678;2024-01-25T01:40:01;22.07;;;5.00;;
37777;SDS011;23615;51.506;7.678;2024-01-25T01:42:27;22.20;;;4.90;;
37777;SDS011;23615;51.506;7.678;2024-01-25T01:44:53;20.77;;;4.43;;
37777;SDS011;23615;51.506;7.678;2024-01-25T01:47:19;22.45;;;4.65;;
37777;SDS011;23615;51.506;7.678;2024-01-25T01:49:44;20.65;;;4.70;;
37777;SDS011;23615;51.506;7.678;2024-01-25T01:52:09;20.63;;;4.53;;
37777;SDS011;23615;51.506;7.678;2024-01-25T01:54:36;23.45;;;5.00;;
37777;SDS011;23615;51.506;7.678;2024-01-25T01:57:02;25.55;;;5.65;;
37777;SDS011;23615;51.506;7.678;2024-01-25T01:59:28;20.33;;;4.30;;
37777;SDS011;23615;51.506;7.678;2024-01-25T02:01:54;21.15;;;5.65;;
37777;SDS011;23615;51.506;7.678;2024-01-25T02:04:20;21.23;;;5.15;;
37777;SDS011;23615;51.506;7.678;2024-01-25T02:06:45;20.33;;;4.30;;
37777;SDS011;23615;51.506;7.678;2024-01-25T02:09:11;21.60;;;3.93;;
37777;SDS011;23615;51.506;7.678;2024-01-25T02:11:38;23.03;;;4.70;;
37777;SDS011;23615;51.506;7.678;2024-01-25T02:14:03;25.23;;;4.93;;
37777;SDS011;23615;51.506;7.678;2024-01-25T02:16:28;22.87;;;5.73;;
37777;SDS011;23615;51.506;7.678;2024-01-25T02:18:54;26.27;;;5.23;;
37777;SDS011;23615;51.506;7.678;2024-01-25T02:21:22;27.25;;;5.10;;
37777;SDS011;23615;51.506;7.678;2024-01-25T02:23:47;20.48;;;4.82;;
37777;SDS011;23615;51.506;7.678;2024-01-25T02:26:12;22.70;;;5.10;;
37777;SDS011;23615;51.506;7.678;2024-01-25T02:28:38;22.40;;;4.50;;
37777;SDS011;23615;51.506;7.678;2024-01-25T02:31:03;22.30;;;4.33;;
37777;SDS011;23615;51.506;7.678;2024-01-25T02:33:29;19.00;;;4.82;;
37777;SDS011;23615;51.506;7.678;2024-01-25T02:35:54;23.80;;;4.47;;
37777;SDS011;23615;51.506;7.678;2024-01-25T02:38:20;22.20;;;4.65;;
37777;SDS011;23615;51.506;7.678;2024-01-25T02:40:45;20.97;;;4.10;;
37777;SDS011;23615;51.506;7.678;2024-01-25T02:43:10;19.67;;;3.33;;
37777;SDS011;23615;51.506;7.678;2024-01-25T02:45:36;23.27;;;4.73;;
37777;SDS011;23615;51.506;7.678;2024-01-25T02:48:01;18.27;;;4.33;;
37777;SDS011;23615;51.506;7.678;2024-01-25T02:50:28;20.25;;;3.85;;
37777;SDS011;23615;51.506;7.678;2024-01-25T02:52:53;16.90;;;4.22;;
37777;SDS011;23615;51.506;7.678;2024-01-25T02:55:19;20.10;;;4.55;;
37777;SDS011;23615;51.506;7.678;2024-01-25T02:57:45;25.27;;;4.77;;
37777;SDS011;23615;51.506;7.678;2024-01-25T03:00:10;19.23;;;4.43;;
37777;SDS011;23615;51.506;7.678;2024-01-25T03:02:36;14.73;;;4.88;;
37777;SDS011;23615;51.506;7.678;2024-01-25T03:05:01;19.67;;;4.53;;
37777;SDS011;23615;51.506;7.678;2024-01-25T03:07:27;20.20;;;4.25;;
37777;SDS011;23615;51.506;7.678;2024-01-25T03:09:52;23.40;;;4.10;;
37777;SDS011;23615;51.506;7.678;2024-01-25T03:12:19;19.85;;;4.05;;
37777;SDS011;23615;51.506;7.678;2024-01-25T03:14:45;15.83;;;3.87;;
37777;SDS011;23615;51.506;7.678;2024-01-25T03:17:10;19.13;;;4.87;;
37777;SDS011;23615;51.506;7.678;2024-01-25T03:19:37;23.90;;;5.20;;
37777;SDS011;23615;51.506;7.678;2024-01-25T03:22:03;21.65;;;4.63;;
37777;SDS011;23615;51.506;7.678;2024-01-25T03:24:28;16.83;;;5.20;;
37777;SDS011;23615;51.506;7.678;2024-01-25T03:26:54;20.47;;;3.87;;
37777;SDS011;23615;51.506;7.678;2024-01-25T03:29:19;19.13;;;3.90;;
37777;SDS011;23615;51.506;7.678;2024-01-25T03:31:44;18.73;;;4.43;;
37777;SDS011;23615;51.506;7.678;2024-01-25T03:34:10;18.07;;;4.20;;
37777;SDS011;23615;51.506;7.678;2024-01-25T03:36:35;19.37;;;4.80;;
37777;SDS011;23615;51.506;7.678;2024-01-25T03:39:01;17.83;;;3.70;;
37777;SDS011;23615;51.506;7.678;2024-01-25T03:41:27;18.25;;;4.60;;
37777;SDS011;23615;51.506;7.678;2024-01-25T03:43:54;22.85;;;5.10;;
37777;SDS011;23615;51.506;7.678;2024-01-25T03:46:19;16.40;;;4.03;;
37777;SDS011;23615;51.506;7.678;2024-01-25T03:48:45;17.97;;;3.73;;
37777;SDS011;23615;51.506;7.678;2024-01-25T03:51:10;18.73;;;3.73;;
37777;SDS011;23615;51.506;7.678;2024-01-25T03:53:35;26.93;;;4.10;;
37777;SDS011;23615;51.506;7.678;2024-01-25T03:56:01;21.17;;;5.30;;
37777;SDS011;23615;51.506;7.678;2024-01-25T03:58:26;18.93;;;4.37;;
37777;SDS011;23615;51.506;7.678;2024-01-25T04:00:51;19.55;;;3.97;;
37777;SDS011;23615;51.506;7.678;2024-01-25T04:03:17;21.30;;;4.53;;
37777;SDS011;23615;51.506;7.678;2024-01-25T04:05:42;20.23;;;3.88;;
37777;SDS011;23615;51.506;7.678;2024-01-25T04:08:08;16.15;;;4.72;;
37777;SDS011;23615;51.506;7.678;2024-01-25T04:10:33;21.88;;;4.65;;
37777;SDS011;23615;51.506;7.678;2024-01-25T04:12:59;19.27;;;4.40;;
37777;SDS011;23615;51.506;7.678;2024-01-25T04:15:29;21.10;;;4.13;;
37777;SDS011;23615;51.506;7.678;2024-01-25T04:17:55;19.08;;;3.88;;
37777;SDS011;23615;51.506;7.678;2024-01-25T04:20:21;25.98;;;4.90;;
37777;SDS011;23615;51.506;7.678;2024-01-25T04:22:46;19.00;;;4.23;;
37777;SDS011;23615;51.506;7.678;2024-01-25T04:25:12;21.48;;;3.65;;
37777;SDS011;23615;51.506;7.678;2024-01-25T04:27:37;19.90;;;4.80;;
37777;SDS011;23615;51.506;7.678;2024-01-25T04:30:06;20.08;;;4.63;;
37777;SDS011;23615;51.506;7.678;2024-01-25T04:32:32;20.10;;;4.45;;
37777;SDS011;23615;51.506;7.678;2024-01-25T04:34:58;19.83;;;3.77;;
37777;SDS011;23615;51.506;7.678;2024-01-25T04:37:24;22.97;;;4.03;;
37777;SDS011;23615;51.506;7.678;2024-01-25T04:39:49;23.20;;;4.80;;
37777;SDS011;23615;51.506;7.678;2024-01-25T04:42:14;17.87;;;3.83;;
37777;SDS011;23615;51.506;7.678;2024-01-25T04:44:40;19.50;;;4.20;;
37777;SDS011;23615;51.506;7.678;2024-01-25T04:47:05;22.57;;;4.63;;
37777;SDS011;23615;51.506;7.678;2024-01-25T04:49:30;16.00;;;4.53;;
37777;SDS011;23615;51.506;7.678;2024-01-25T04:51:56;21.17;;;4.33;;
37777;SDS011;23615;51.506;7.678;2024-01-25T04:54:21;19.27;;;4.70;;
37777;SDS011;23615;51.506;7.678;2024-01-25T04:56:46;16.17;;;4.10;;
37777;SDS011;23615;51.506;7.678;2024-01-25T04:59:12;25.38;;;4.78;;
37777;SDS011;23615;51.506;7.678;2024-01-25T05:01:37;22.93;;;4.30;;
37777;SDS011;23615;51.506;7.678;2024-01-25T05:04:02;14.90;;;4.03;;
37777;SDS011;23615;51.506;7.678;2024-01-25T05:06:28;24.83;;;5.72;;
37777;SDS011;23615;51.506;7.678;2024-01-25T05:08:53;16.55;;;3.83;;
37777;SDS011;23615;51.506;7.678;2024-01-25T05:11:19;22.83;;;4.63;;
37777;SDS011;23615;51.506;7.678;2024-01-25T05:13:44;19.20;;;4.53;;
37777;SDS011;23615;51.506;7.678;2024-01-25T05:16:09;22.93;;;4.83;;
37777;SDS011;23615;51.506;7.678;2024-01-25T05:18:36;24.00;;;4.85;;
37777;SDS011;23615;51.506;7.678;2024-01-25T05:21:01;19.98;;;5.10;;
37777;SDS011;23615;51.506;7.678;2024-01-25T05:23:27;12.93;;;3.80;;
37777;SDS011;23615;51.506;7.678;2024-01-25T05:25:52;12.97;;;3.67;;
37777;SDS011;23615;51.506;7.678;2024-01-25T05:28:18;23.38;;;5.22;;
37777;SDS011;23615;51.506;7.678;2024-01-25T05:30:43;22.65;;;4.45;;
37777;SDS011;23615;51.506;7.678;2024-01-25T05:33:08;17.80;;;4.05;;
37777;SDS011;23615;51.506;7.678;2024-01-25T05:35:34;19.00;;;4.17;;
37777;SDS011;23615;51.506;7.678;2024-01-25T05:38:00;12.20;;;2.70;;
37777;SDS011;23615;51.506;7.678;2024-01-25T05:40:25;19.70;;;4.40;;
37777;SDS011;23615;51.506;7.678;2024-01-25T05:42:51;17.93;;;4.10;;
37777;SDS011;23615;51.506;7.678;2024-01-25T05:45:16;16.23;;;3.60;;
37777;SDS011;23615;51.506;7.678;2024-01-25T05:47:44;22.75;;;4.65;;
37777;SDS011;23615;51.506;7.678;2024-01-25T05:50:10;19.13;;;4.72;;
37777;SDS011;23615;51.506;7.678;2024-01-25T05:52:36;18.00;;;3.57;;
37777;SDS011;23615;51.506;7.678;2024-01-25T05:55:02;24.35;;;4.85;;
37777;SDS011;23615;51.506;7.678;2024-01-25T05:57:28;19.40;;;3.95;;
37777;SDS011;23615;51.506;7.678;2024-01-25T05:59:54;18.93;;;4.20;;
37777;SDS011;23615;51.506;7.678;2024-01-25T06:02:19;13.20;;;2.67;;
37777;SDS011;23615;51.506;7.678;2024-01-25T06:04:45;20.83;;;4.17;;
37777;SDS011;23615;51.506;7.678;2024-01-25T06:07:10;25.43;;;5.10;;
37777;SDS011;23615;51.506;7.678;2024-01-25T06:09:35;22.33;;;4.47;;
37777;SDS011;23615;51.506;7.678;2024-01-25T06:12:01;20.67;;;3.80;;
37777;SDS011;23615;51.506;7.678;2024-01-25T06:14:26;19.93;;;4.27;;
37777;SDS011;23615;51.506;7.678;2024-01-25T06:16:51;22.63;;;4.70;;
37777;SDS011;23615;51.506;7.678;2024-01-25T06:19:17;21.67;;;4.32;;
37777;SDS011;23615;51.506;7.678;2024-01-25T06:21:42;20.97;;;5.10;;
37777;SDS011;23615;51.506;7.678;2024-01-25T06:24:07;17.93;;;4.23;;
37777;SDS011;23615;51.506;7.678;2024-01-25T06:26:33;23.63;;;4.63;;
37777;SDS011;23615;51.506;7.678;2024-01-25T06:28:58;20.90;;;4.70;;
37777;SDS011;23615;51.506;7.678;2024-01-25T06:31:24;21.25;;;5.00;;
37777;SDS011;23615;51.506;7.678;2024-01-25T06:33:49;20.80;;;4.63;;
37777;SDS011;23615;51.506;7.678;2024-01-25T06:36:21;19.73;;;4.90;;
37777;SDS011;23615;51.506;7.678;2024-01-25T06:38:47;21.75;;;4.82;;
37777;SDS011;23615;51.506;7.678;2024-01-25T06:41:12;23.80;;;4.20;;
37777;SDS011;23615;51.506;7.678;2024-01-25T06:43:38;20.03;;;4.50;;
37777;SDS011;23615;51.506;7.678;2024-01-25T06:46:05;19.25;;;4.30;;
37777;SDS011;23615;51.506;7.678;2024-01-25T06:48:31;21.42;;;6.18;;
37777;SDS011;23615;51.506;7.678;2024-01-25T06:50:56;22.40;;;5.20;;
37777;SDS011;23615;51.506;7.678;2024-01-25T06:53:21;18.83;;;4.60;;
37777;SDS011;23615;51.506;7.678;2024-01-25T06:55:46;20.07;;;4.80;;
37777;SDS011;23615;51.506;7.678;2024-01-25T06:58:12;21.60;;;5.50;;
37777;SDS011;23615;51.506;7.678;2024-01-25T07:00:38;18.05;;;4.03;;
37777;SDS011;23615;51.506;7.678;2024-01-25T07:03:04;19.60;;;4.50;;
37777;SDS011;23615;51.506;7.678;2024-01-25T07:05:32;20.23;;;5.03;;
37777;SDS011;23615;51.506;7.678;2024-01-25T07:08:00;21.20;;;5.37;;
37777;SDS011;23615;51.506;7.678;2024-01-25T07:10:26;28.05;;;6.15;;
37777;SDS011;23615;51.506;7.678;2024-01-25T07:12:51;27.43;;;4.97;;
37777;SDS011;23615;51.506;7.678;2024-01-25T07:15:17;24.73;;;5.57;;
37777;SDS011;23615;51.506;7.678;2024-01-25T07:17:43;22.80;;;4.80;;
37777;SDS011;23615;51.506;7.678;2024-01-25T07:20:08;22.83;;;4.63;;
37777;SDS011;23615;51.506;7.678;2024-01-25T07:22:34;19.65;;;5.20;;
37777;SDS011;23615;51.506;7.678;2024-01-25T07:24:59;20.40;;;4.77;;
37777;SDS011;23615;51.506;7.678;2024-01-25T07:27:25;26.93;;;5.07;;
37777;SDS011;23615;51.506;7.678;2024-01-25T07:29:50;28.43;;;5.43;;
37777;SDS011;23615;51.506;7.678;2024-01-25T07:32:15;24.60;;;5.43;;
37777;SDS011;23615;51.506;7.678;2024-01-25T07:34:41;22.98;;;6.05;;
37777;SDS011;23615;51.506;7.678;2024-01-25T07:37:07;19.70;;;5.10;;
37777;SDS011;23615;51.506;7.678;2024-01-25T07:39:32;18.03;;;4.83;;
37777;SDS011;23615;51.506;7.678;2024-01-25T07:41:57;24.40;;;5.87;;
37777;SDS011;23615;51.506;7.678;2024-01-25T07:44:23;23.37;;;4.83;;
37777;SDS011;23615;51.506;7.678;2024-01-25T07:46:48;22.73;;;5.20;;
37777;SDS011;23615;51.506;7.678;2024-01-25T07:49:13;21.50;;;5.23;;
37777;SDS011;23615;51.506;7.678;2024-01-25T07:51:39;19.80;;;4.63;;
37777;SDS011;23615;51.506;7.678;2024-01-25T07:54:04;22.70;;;5.20;;
37777;SDS011;23615;51.506;7.678;2024-01-25T07:56:29;20.52;;;4.82;;
37777;SDS011;23615;51.506;7.678;2024-01-25T07:58:55;21.75;;;4.72;;
37777;SDS011;23615;51.506;7.678;2024-01-25T08:01:20;19.25;;;5.22;;
37777;SDS011;23615;51.506;7.678;2024-01-25T08:03:46;24.73;;;6.10;;
37777;SDS011;23615;51.506;7.678;2024-01-25T08:06:11;25.20;;;5.50;;
37777;SDS011;23615;51.506;7.678;2024-01-25T08:08:37;21.53;;;5.27;;
37777;SDS011;23615;51.506;7.678;2024-01-25T08:11:02;26.17;;;5.33;;
37777;SDS011;23615;51.506;7.678;2024-01-25T08:13:29;26.83;;;6.67;;
37777;SDS011;23615;51.506;7.678;2024-01-25T08:15:54;20.23;;;5.23;;
37777;SDS011;23615;51.506;7.678;2024-01-25T08:18:20;23.67;;;6.13;;
37777;SDS011;23615;51.506;7.678;2024-01-25T08:20:47;29.67;;;5.75;;
37777;SDS011;23615;51.506;7.678;2024-01-25T08:23:13;27.03;;;5.83;;
37777;SDS011;23615;51.506;7.678;2024-01-25T08:25:39;24.90;;;6.80;;
37777;SDS011;23615;51.506;7.678;2024-01-25T08:28:04;28.53;;;6.77;;
37777;SDS011;23615;51.506;7.678;2024-01-25T08:30:30;29.10;;;7.43;;
37777;SDS011;23615;51.506;7.678;2024-01-25T08:32:55;29.23;;;7.03;;
37777;SDS011;23615;51.506;7.678;2024-01-25T08:35:21;28.85;;;7.75;;
37777;SDS011;23615;51.506;7.678;2024-01-25T08:37:46;29.63;;;7.72;;
37777;SDS011;23615;51.506;7.678;2024-01-25T08:40:11;28.07;;;7.87;;
37777;SDS011;23615;51.506;7.678;2024-01-25T08:42:37;29.65;;;8.77;;
37777;SDS011;23615;51.506;7.678;2024-01-25T08:45:02;32.43;;;8.47;;
37777;SDS011;23615;51.506;7.678;2024-01-25T08:47:29;32.13;;;8.55;;
37777;SDS011;23615;51.506;7.678;2024-01-25T08:49:56;25.83;;;8.77;;
37777;SDS011;23615;51.506;7.678;2024-01-25T08:52:22;24.10;;;8.13;;
37777;SDS011;23615;51.506;7.678;2024-01-25T08:54:47;35.80;;;9.70;;
37777;SDS011;23615;51.506;7.678;2024-01-25T08:57:12;23.50;;;9.23;;
37777;SDS011;23615;51.506;7.678;2024-01-25T08:59:39;31.52;;;10.98;;
37777;SDS011;23615;51.506;7.678;2024-01-25T09:02:05;30.90;;;11.63;;
37777;SDS011;23615;51.506;7.678;2024-01-25T09:04:31;40.45;;;11.27;;
37777;SDS011;23615;51.506;7.678;2024-01-25T09:06:57;34.20;;;11.02;;
37777;SDS011;23615;51.506;7.678;2024-01-25T09:09:22;35.13;;;10.60;;
37777;SDS011;23615;51.506;7.678;2024-01-25T09:11:48;30.97;;;10.40;;
37777;SDS011;23615;51.506;7.678;2024-01-25T09:14:13;34.93;;;10.37;;
37777;SDS011;23615;51.506;7.678;2024-01-25T09:16:39;23.90;;;9.37;;
37777;SDS011;23615;51.506;7.678;2024-01-25T09:19:04;31.27;;;10.63;;
37777;SDS011;23615;51.506;7.678;2024-01-25T09:21:30;27.77;;;9.27;;
37777;SDS011;23615;51.506;7.678;2024-01-25T09:23:55;31.50;;;10.23;;
37777;SDS011;23615;51.506;7.678;2024-01-25T09:26:20;31.63;;;9.73;;
37777;SDS011;23615;51.506;7.678;2024-01-25T09:28:45;24.27;;;10.27;;
37777;SDS011;23615;51.506;7.678;2024-01-25T09:31:11;29.03;;;9.87;;
37777;SDS011;23615;51.506;7.678;2024-01-25T09:33:36;30.60;;;9.80;;
37777;SDS011;23615;51.506;7.678;2024-01-25T09:36:02;32.83;;;10.57;;
37777;SDS011;23615;51.506;7.678;2024-01-25T09:38:27;29.73;;;9.77;;
37777;SDS011;23615;51.506;7.678;2024-01-25T09:40:52;31.80;;;10.43;;
37777;SDS011;23615;51.506;7.678;2024-01-25T09:43:18;39.60;;;14.57;;
37777;SDS011;23615;51.506;7.678;2024-01-25T09:45:45;30.58;;;10.20;;
37777;SDS011;23615;51.506;7.678;2024-01-25T09:48:11;29.63;;;10.13;;
37777;SDS011;23615;51.506;7.678;2024-01-25T09:50:36;30.97;;;10.90;;
37777;SDS011;23615;51.506;7.678;2024-01-25T09:53:02;32.67;;;10.27;;
37777;SDS011;23615;51.506;7.678;2024-01-25T09:55:30;26.25;;;10.10;;
37777;SDS011;23615;51.506;7.678;2024-01-25T09:58:03;28.45;;;9.82;;
37777;SDS011;23615;51.506;7.678;2024-01-25T10:00:32;26.90;;;9.33;;
37777;SDS011;23615;51.506;7.678;2024-01-25T10:02:58;30.27;;;9.63;;
37777;SDS011;23615;51.506;7.678;2024-01-25T10:05:23;28.17;;;11.00;;
37777;SDS011;23615;51.506;7.678;2024-01-25T10:07:48;33.97;;;12.67;;
37777;SDS011;23615;51.506;7.678;2024-01-25T10:10:14;38.27;;;12.80;;
37777;SDS011;23615;51.506;7.678;2024-01-25T10:12:40;32.80;;;13.03;;
37777;SDS011;23615;51.506;7.678;2024-01-25T10:15:07;40.95;;;14.77;;
37777;SDS011;23615;51.506;7.678;2024-01-25T10:17:33;29.73;;;11.90;;
37777;SDS011;23615;51.506;7.678;2024-01-25T10:19:58;32.57;;;12.07;;
37777;SDS011;23615;51.506;7.678;2024-01-25T10:22:24;33.03;;;12.70;;
37777;SDS011;23615;51.506;7.678;2024-01-25T10:24:49;31.77;;;12.70;;
37777;SDS011;23615;51.506;7.678;2024-01-25T10:27:15;32.45;;;12.10;;
37777;SDS011;23615;51.506;7.678;2024-01-25T10:29:42;32.83;;;13.15;;
37777;SDS011;23615;51.506;7.678;2024-01-25T10:32:10;29.83;;;11.53;;
37777;SDS011;23615;51.506;7.678;2024-01-25T10:34:37;31.88;;;12.18;;
37777;SDS011;23615;51.506;7.678;2024-01-25T10:37:03;30.08;;;12.30;;
37777;SDS011;23615;51.506;7.678;2024-01-25T10:39:31;35.28;;;12.07;;
37777;SDS011;23615;51.506;7.678;2024-01-25T10:41:58;28.08;;;10.73;;
37777;SDS011;23615;51.506;7.678;2024-01-25T10:44:23;29.92;;;9.38;;
37777;SDS011;23615;51.506;7.678;2024-01-25T10:46:49;31.17;;;9.00;;
37777;SDS011;23615;51.506;7.678;2024-01-25T10:49:14;34.20;;;10.30;;
37777;SDS011;23615;51.506;7.678;2024-01-25T10:51:41;28.00;;;9.77;;
37777;SDS011;23615;51.506;7.678;2024-01-25T10:54:08;25.17;;;8.95;;
37777;SDS011;23615;51.506;7.678;2024-01-25T10:56:46;31.40;;;10.70;;
37777;SDS011;23615;51.506;7.678;2024-01-25T10:59:15;31.30;;;10.03;;
37777;SDS011;23615;51.506;7.678;2024-01-25T11:01:46;27.83;;;10.40;;
37777;SDS011;23615;51.506;7.678;2024-01-25T11:04:12;27.67;;;10.93;;
37777;SDS011;23615;51.506;7.678;2024-01-25T11:06:46;29.27;;;10.23;;
37777;SDS011;23615;51.506;7.678;2024-01-25T11:09:20;27.23;;;10.38;;
37777;SDS011;23615;51.506;7.678;2024-01-25T11:11:46;26.02;;;9.90;;
37777;SDS011;23615;51.506;7.678;2024-01-25T11:14:14;26.92;;;9.82;;
37777;SDS011;23615;51.506;7.678;2024-01-25T11:16:41;28.35;;;9.85;;
37777;SDS011;23615;51.506;7.678;2024-01-25T11:19:15;28.23;;;9.23;;
37777;SDS011;23615;51.506;7.678;2024-01-25T11:21:42;32.28;;;8.80;;
37777;SDS011;23615;51.506;7.678;2024-01-25T11:24:16;26.67;;;8.00;;
37777;SDS011;23615;51.506;7.678;2024-01-25T11:26:45;23.48;;;7.70;;
37777;SDS011;23615;51.506;7.678;2024-01-25T11:29:15;23.92;;;8.00;;
37777;SDS011;23615;51.506;7.678;2024-01-25T11:31:44;22.95;;;6.90;;
37777;SDS011;23615;51.506;7.678;2024-01-25T11:34:10;25.00;;;8.68;;
37777;SDS011;23615;51.506;7.678;2024-01-25T11:36:37;24.27;;;7.85;;
37777;SDS011;23615;51.506;7.678;2024-01-25T11:39:02;21.00;;;7.20;;
37777;SDS011;23615;51.506;7.678;2024-01-25T11:41:28;22.23;;;7.32;;
37777;SDS011;23615;51.506;7.678;2024-01-25T11:43:55;22.08;;;6.78;;
37777;SDS011;23615;51.506;7.678;2024-01-25T11:46:21;23.30;;;6.90;;
37777;SDS011;23615;51.506;7.678;2024-01-25T11:48:47;24.03;;;7.50;;
37777;SDS011;23615;51.506;7.678;2024-01-25T11:51:12;29.47;;;8.13;;
37777;SDS011;23615;51.506;7.678;2024-01-25T11:53:38;28.87;;;7.90;;
37777;SDS011;23615;51.506;7.678;2024-01-25T11:56:07;27.67;;;8.83;;
37777;SDS011;23615;51.506;7.678;2024-01-25T11:58:36;24.73;;;7.87;;
37777;SDS011;23615;51.506;7.678;2024-01-25T12:01:03;27.97;;;8.57;;
37777;SDS011;23615;51.506;7.678;2024-01-25T12:03:32;29.35;;;8.25;;
37777;SDS011;23615;51.506;7.678;2024-01-25T12:06:04;26.48;;;8.90;;
37777;SDS011;23615;51.506;7.678;2024-01-25T12:08:31;20.33;;;8.13;;
37777;SDS011;23615;51.506;7.678;2024-01-25T12:11:04;20.55;;;7.57;;
37777;SDS011;23615;51.506;7.678;2024-01-25T12:13:49;25.43;;;8.63;;
37777;SDS011;23615;51.506;7.678;2024-01-25T12:16:14;22.85;;;7.95;;
37777;SDS011;23615;51.506;7.678;2024-01-25T12:18:40;29.50;;;7.90;;
37777;SDS011;23615;51.506;7.678;2024-01-25T12:21:07;25.45;;;7.68;;
37777;SDS011;23615;51.506;7.678;2024-01-25T12:23:36;23.70;;;7.57;;
37777;SDS011;23615;51.506;7.678;2024-01-25T12:26:06;24.80;;;6.50;;
37777;SDS011;23615;51.506;7.678;2024-01-25T12:28:33;27.83;;;7.95;;
37777;SDS011;23615;51.506;7.678;2024-01-25T12:30:59;22.33;;;7.03;;
37777;SDS011;23615;51.506;7.678;2024-01-25T12:33:26;23.33;;;8.02;;
37777;SDS011;23615;51.506;7.678;2024-01-25T12:35:51;26.02;;;7.85;;
37777;SDS011;23615;51.506;7.678;2024-01-25T12:38:18;23.17;;;6.88;;
37777;SDS011;23615;51.506;7.678;2024-01-25T12:40:46;23.00;;;6.55;;
37777;SDS011;23615;51.506;7.678;2024-01-25T12:43:11;30.55;;;7.43;;
37777;SDS011;23615;51.506;7.678;2024-01-25T12:45:37;26.33;;;7.60;;
37777;SDS011;23615;51.506;7.678;2024-01-25T12:48:02;21.47;;;6.97;;
37777;SDS011;23615;51.506;7.678;2024-01-25T12:50:28;18.52;;;6.50;;
37777;SDS011;23615;51.506;7.678;2024-01-25T12:52:53;26.73;;;6.73;;
37777;SDS011;23615;51.506;7.678;2024-01-25T12:55:18;29.17;;;7.30;;
37777;SDS011;23615;51.506;7.678;2024-01-25T12:57:44;26.73;;;6.78;;
37777;SDS011;23615;51.506;7.678;2024-01-25T13:00:09;26.23;;;6.47;;
37777;SDS011;23615;51.506;7.678;2024-01-25T13:02:35;18.60;;;5.77;;
37777;SDS011;23615;51.506;7.678;2024-01-25T13:05:00;19.80;;;7.37;;
37777;SDS011;23615;51.506;7.678;2024-01-25T13:07:25;20.10;;;5.93;;
37777;SDS011;23615;51.506;7.678;2024-01-25T13:09:51;21.37;;;6.47;;
37777;SDS011;23615;51.506;7.678;2024-01-25T13:12:16;25.03;;;7.10;;
37777;SDS011;23615;51.506;7.678;2024-01-25T13:14:41;23.33;;;6.53;;
37777;SDS011;23615;51.506;7.678;2024-01-25T13:17:06;21.67;;;5.33;;
37777;SDS011;23615;51.506;7.678;2024-01-25T13:19:33;18.75;;;5.70;;
37777;SDS011;23615;51.506;7.678;2024-01-25T13:21:58;24.75;;;5.50;;
37777;SDS011;23615;51.506;7.678;2024-01-25T13:24:24;16.55;;;4.18;;
37777;SDS011;23615;51.506;7.678;2024-01-25T13:26:49;19.43;;;5.47;;
37777;SDS011;23615;51.506;7.678;2024-01-25T13:29:14;19.00;;;4.43;;
37777;SDS011;23615;51.506;7.678;2024-01-25T13:31:40;17.67;;;4.73;;
37777;SDS011;23615;51.506;7.678;2024-01-25T13:34:05;19.23;;;5.03;;
37777;SDS011;23615;51.506;7.678;2024-01-25T13:36:31;19.27;;;5.17;;
37777;SDS011;23615;51.506;7.678;2024-01-25T13:38:56;16.17;;;5.00;;
37777;SDS011;23615;51.506;7.678;2024-01-25T13:41:21;18.20;;;3.80;;
37777;SDS011;23615;51.506;7.678;2024-01-25T13:43:47;22.97;;;4.33;;
37777;SDS011;23615;51.506;7.678;2024-01-25T13:46:12;17.80;;;4.28;;
37777;SDS011;23615;51.506;7.678;2024-01-25T13:48:37;25.43;;;4.10;;
37777;SDS011;23615;51.506;7.678;2024-01-25T13:51:03;16.77;;;3.93;;
37777;SDS011;23615;51.506;7.678;2024-01-25T13:53:28;18.40;;;4.00;;
37777;SDS011;23615;51.506;7.678;2024-01-25T13:55:53;18.13;;;3.87;;
37777;SDS011;23615;51.506;7.678;2024-01-25T13:58:19;15.70;;;4.30;;
37777;SDS011;23615;51.506;7.678;2024-01-25T14:00:44;19.47;;;4.50;;
37777;SDS011;23615;51.506;7.678;2024-01-25T14:03:09;13.40;;;3.47;;
37777;SDS011;23615;51.506;7.678;2024-01-25T14:05:35;17.08;;;5.22;;
37777;SDS011;23615;51.506;7.678;2024-01-25T14:08:00;18.83;;;5.43;;
37777;SDS011;23615;51.506;7.678;2024-01-25T14:10:25;16.10;;;4.50;;
37777;SDS011;23615;51.506;7.678;2024-01-25T14:12:52;17.23;;;4.47;;
37777;SDS011;23615;51.506;7.678;2024-01-25T14:15:18;19.47;;;5.63;;
37777;SDS011;23615;51.506;7.678;2024-01-25T14:17:43;19.17;;;4.80;;
37777;SDS011;23615;51.506;7.678;2024-01-25T14:20:09;18.50;;;4.47;;
37777;SDS011;23615;51.506;7.678;2024-01-25T14:22:35;14.10;;;4.32;;
37777;SDS011;23615;51.506;7.678;2024-01-25T14:25:00;21.53;;;4.63;;